08:59
Airports
Links
Donate
Help keep this website running!
PayPal
Bitcoin
METAR
UIII 180830Z 28003MPS CAVOK M13/M19 Q1030 R30/820550 NOSIG RMK QFE727/0970
Current Weather Conditions at UIII
VFR 08:30:00 18-02-18
Altimeter:30.41 hg
Temp:-13.0°cf
Dew point:-19.0°c -2°f
Wind:6 knots, 6.9 mph, 3 m/s, from 280°
Visibility:6.21 statute miles
(CAVOK)
No significant weather changes expected within 2 hours.
Past METAR reports
VFR 08:00:00 18-02-18
Altimeter:30.44 hg
Temp:-13.0°cf
Dew point:-19.0°c -2°f
Wind:4 knots, 4.6 mph, 2 m/s, from 280°
Visibility:6.21 statute miles
(CAVOK)
No significant weather changes expected within 2 hours.
UIII 180800Z 28002MPS CAVOK M13/M19 Q1031 R30/820550 NOSIG RMK QFE728/0970
VFR 07:30:00 18-02-18
Altimeter:30.44 hg
Temp:-13.0°cf
Dew point:-19.0°c -2°f
Wind:6 knots, 6.9 mph, 3 m/s, from 290°
Visibility:6.21 statute miles
(CAVOK)
No significant weather changes expected within 2 hours.
UIII 180730Z 29003MPS CAVOK M13/M19 Q1031 R30/820550 NOSIG RMK QFE728/0970
VFR 07:00:00 18-02-18
Altimeter:30.44 hg
Temp:-14.0°cf
Dew point:-19.0°c -2°f
Wind:6 knots, 6.9 mph, 3 m/s, from 290°
Visibility:6.21 statute miles
(CAVOK)
No significant weather changes expected within 2 hours.
UIII 180700Z 29003MPS CAVOK M14/M19 Q1031 R30/820550 NOSIG RMK QFE728/0971
VFR 06:30:00 18-02-18
Altimeter:30.44 hg
Temp:-14.0°cf
Dew point:-19.0°c -2°f
Wind:4 knots, 4.6 mph, 2 m/s, from 280°
Visibility:6.21 statute miles
(CAVOK)
No significant weather changes expected within 2 hours.
UIII 180630Z 28002MPS CAVOK M14/M19 Q1031 R30/820550 NOSIG RMK QFE728/0971
VFR 06:00:00 18-02-18
Altimeter:30.44 hg
Temp:-13.0°cf
Dew point:-19.0°c -2°f
Wind:2 knots, 2.3 mph, 1 m/s,
Variable direction
Visibility:6.21 statute miles
4600(SCT) Scattered
No significant weather changes expected within 2 hours.
UIII 180600Z VRB01MPS 9999 SCT046 M13/M19 Q1031 R30/820550 NOSIG RMK QFE728/0971
VFR 05:30:00 18-02-18
Altimeter:30.47 hg
Temp:-15.0°cf
Dew point:-20.0°c -4°f
Wind:2 knots, 2.3 mph, 1 m/s,
Variable direction
Visibility:6.21 statute miles
4600(SCT) Scattered
No significant weather changes expected within 2 hours.
UIII 180530Z VRB01MPS 9999 SCT046 M15/M20 Q1032 R30/820550 NOSIG RMK QFE728/0971
TAF
TAF UIII 180800Z 1809/1909 29003MPS 5000 FU SCT020
Forecast at UIII
09:00 18-02-18 to 09:00 19-02-18
FU
Wind:6 Knots from 290°
Visibility:3.11 statute miles
2000SCT Scattered